createdAt,value
2023-10-12T00:02:05.266Z,102665.25
2023-10-12T00:04:54.094Z,102662.74
2023-10-12T00:07:43.774Z,102654.43
2023-10-12T00:10:41.411Z,102648.23
2023-10-12T00:13:29.754Z,102643.64
2023-10-12T00:16:19.927Z,102640.11
2023-10-12T00:19:12.710Z,102638.83
2023-10-12T00:22:00.821Z,102635.05
2023-10-12T00:24:46.782Z,102629.66
2023-10-12T00:27:34.832Z,102630.69
2023-10-12T00:30:21.486Z,102625.01
2023-10-12T00:33:09.497Z,102625.48
2023-10-12T00:36:20.496Z,102624.79
2023-10-12T00:39:10.021Z,102620.70
2023-10-12T00:41:57.149Z,102624.04
2023-10-12T00:44:43.130Z,102622.79
2023-10-12T00:47:49.083Z,102626.36
2023-10-12T00:50:38.062Z,102622.07
2023-10-12T00:53:31.865Z,102620.58
2023-10-12T00:56:19.102Z,102619.61
2023-10-12T00:59:04.694Z,102619.20
2023-10-12T01:01:50.628Z,102620.84
2023-10-12T01:04:37.818Z,102617.23
2023-10-12T01:07:26.618Z,102612.35
2023-10-12T01:10:17.972Z,102617.41
2023-10-12T01:13:04.239Z,102618.45
2023-10-12T01:15:51.994Z,102620.52
2023-10-12T01:18:38.931Z,102621.43
2023-10-12T01:21:24.565Z,102621.44
2023-10-12T01:24:13.305Z,102618.99
2023-10-12T01:27:00.000Z,102614.94
2023-10-12T01:29:46.837Z,102621.11
2023-10-12T01:32:39.246Z,102618.94
2023-10-12T01:35:34.539Z,102618.39
2023-10-12T01:38:22.671Z,102620.14
2023-10-12T01:41:10.560Z,102620.52
2023-10-12T01:43:57.831Z,102624.23
2023-10-12T01:46:43.659Z,102618.95
2023-10-12T01:49:31.217Z,102619.08
2023-10-12T01:52:21.355Z,102621.69
2023-10-12T01:55:17.046Z,102619.57
2023-10-12T01:58:05.627Z,102620.77
2023-10-12T02:00:54.483Z,102618.80
2023-10-12T02:03:45.894Z,102619.45
2023-10-12T02:06:32.629Z,102612.84
2023-10-12T02:09:23.059Z,102611.75
2023-10-12T02:12:14.329Z,102611.35
2023-10-12T02:15:02.259Z,102606.02
2023-10-12T02:17:51.899Z,102607.73
2023-10-12T02:20:42.919Z,102608.75
2023-10-12T02:23:37.388Z,102605.21
2023-10-12T02:26:52.420Z,102603.11
2023-10-12T02:29:38.219Z,102603.13
2023-10-12T02:32:26.319Z,102601.19
2023-10-12T02:35:13.120Z,102604.51
2023-10-12T02:37:59.452Z,102599.04
2023-10-12T02:40:45.886Z,102599.05
2023-10-12T02:43:33.599Z,102596.05
2023-10-12T02:46:23.572Z,102597.44
2023-10-12T02:49:09.292Z,102594.55
2023-10-12T02:51:55.052Z,102597.86
2023-10-12T02:54:51.466Z,102594.35
2023-10-12T02:57:38.677Z,102595.89
2023-10-12T03:00:38.839Z,102594.80
2023-10-12T03:03:38.055Z,102594.29
2023-10-12T03:06:30.613Z,102592.14
2023-10-12T03:09:17.875Z,102595.45
2023-10-12T03:12:04.185Z,102592.62
2023-10-12T03:14:53.553Z,102589.77
2023-10-12T03:17:46.524Z,102592.98
2023-10-12T03:20:35.957Z,102590.42
2023-10-12T03:23:21.250Z,102589.06
2023-10-12T03:26:25.247Z,102586.91
2023-10-12T03:29:19.200Z,102587.70
2023-10-12T03:32:05.689Z,102587.96
2023-10-12T03:34:54.354Z,102588.22
2023-10-12T03:37:46.029Z,102581.27
2023-10-12T03:40:51.330Z,102583.02
2023-10-12T03:43:40.561Z,102580.71
2023-10-12T03:46:29.215Z,102577.54
2023-10-12T03:49:32.654Z,102578.94
2023-10-12T03:52:19.907Z,102572.44
2023-10-12T03:55:08.161Z,102574.56
2023-10-12T03:58:01.363Z,102571.38
2023-10-12T04:01:14.590Z,102573.10
2023-10-12T04:04:10.249Z,102576.73
2023-10-12T04:07:01.938Z,102576.02
2023-10-12T04:09:54.661Z,102576.59
2023-10-12T04:13:07.960Z,102577.37
2023-10-12T04:16:28.133Z,102574.58
2023-10-12T04:19:23.360Z,102575.97
2023-10-12T04:22:26.066Z,102575.27
2023-10-12T04:25:22.869Z,102572.11
2023-10-12T04:28:19.679Z,102572.64
2023-10-12T04:31:08.828Z,102574.05
2023-10-12T04:33:57.196Z,102574.56
2023-10-12T04:36:44.404Z,102579.71
2023-10-12T04:39:38.621Z,102579.41
2023-10-12T04:42:34.449Z,102580.89
2023-10-12T04:45:19.946Z,102584.73
2023-10-12T04:48:18.931Z,102582.67
2023-10-12T04:54:58.298Z,102587.25
2023-10-12T04:57:48.102Z,102585.14
2023-10-12T05:00:48.500Z,102586.24
2023-10-12T05:03:36.006Z,102590.33
2023-10-12T05:06:24.902Z,102593.34
2023-10-12T05:09:13.858Z,102593.05
2023-10-12T05:11:59.603Z,102594.49
2023-10-12T05:14:47.578Z,102596.48
2023-10-12T05:17:33.326Z,102598.11
2023-10-12T05:20:24.002Z,102602.02
2023-10-12T05:23:12.070Z,102603.06
2023-10-12T05:25:57.950Z,102606.06
2023-10-12T05:28:58.951Z,102602.55
2023-10-12T05:31:50.296Z,102598.18
2023-10-12T05:34:39.790Z,102597.48
2023-10-12T05:37:27.484Z,102594.16
2023-10-12T05:40:17.640Z,102592.42
2023-10-12T05:43:16.672Z,102596.15
2023-10-12T05:46:05.390Z,102597.77
2023-10-12T05:48:52.890Z,102600.06
2023-10-12T05:51:38.528Z,102600.93
2023-10-12T05:54:24.818Z,102598.45
2023-10-12T05:57:20.140Z,102601.25
2023-10-12T06:00:11.745Z,102603.48
2023-10-12T06:02:59.174Z,102603.59
2023-10-12T06:05:45.351Z,102604.92
2023-10-12T06:08:35.654Z,102604.29
2023-10-12T06:11:27.351Z,102601.85
2023-10-12T06:14:20.961Z,102599.44
2023-10-12T06:17:07.573Z,102603.00
2023-10-12T06:19:55.591Z,102602.81
2023-10-12T06:22:41.413Z,102602.08
2023-10-12T06:25:29.397Z,102600.27
2023-10-12T06:28:17.633Z,102596.85
2023-10-12T06:31:06.534Z,102598.40
2023-10-12T06:33:55.961Z,102595.69
2023-10-12T06:36:41.874Z,102590.46
2023-10-12T06:39:27.593Z,102591.98
2023-10-12T06:42:27.341Z,102586.73
2023-10-12T06:45:16.722Z,102584.48
2023-10-12T06:48:22.294Z,102583.66
2023-10-12T06:51:11.555Z,102584.06
2023-10-12T06:54:18.198Z,102582.52
2023-10-12T06:57:17.824Z,102582.38
2023-10-12T07:00:07.412Z,102581.86
2023-10-12T07:02:53.189Z,102583.14
2023-10-12T07:05:39.089Z,102579.98
2023-10-12T07:08:27.959Z,102579.98
2023-10-12T07:11:15.425Z,102577.67
2023-10-12T07:14:05.654Z,102576.43
2023-10-12T07:16:55.667Z,102577.91
2023-10-12T07:19:43.066Z,102576.67
2023-10-12T07:22:36.946Z,102579.16
2023-10-12T07:25:27.440Z,102578.42
2023-10-12T07:28:23.076Z,102577.88
2023-10-12T07:31:18.038Z,102576.41
2023-10-12T07:34:08.791Z,102579.23
2023-10-12T07:36:58.559Z,102577.77
2023-10-12T07:39:46.378Z,102580.44
2023-10-12T07:42:35.237Z,102577.80
2023-10-12T07:45:20.852Z,102576.22
2023-10-12T07:48:20.665Z,102578.02
2023-10-12T07:51:27.112Z,102574.60
2023-10-12T07:54:32.751Z,102574.60
2023-10-12T07:57:23.097Z,102569.79
2023-10-12T08:00:10.382Z,102568.16
2023-10-12T08:03:06.153Z,102568.21
2023-10-12T08:05:58.161Z,102565.21
2023-10-12T08:08:46.254Z,102561.27
2023-10-12T08:11:35.700Z,102560.33
2023-10-12T08:14:24.390Z,102558.23
2023-10-12T08:17:26.414Z,102555.52
2023-10-12T08:20:31.276Z,102552.20
2023-10-12T08:23:19.355Z,102545.69
2023-10-12T08:26:11.011Z,102551.45
2023-10-12T08:28:58.921Z,102553.13
2023-10-12T08:31:45.223Z,102551.85
2023-10-12T08:34:34.121Z,102544.17
2023-10-12T08:37:25.417Z,102545.54
2023-10-12T08:40:19.914Z,102547.84
2023-10-12T08:43:10.140Z,102542.30
2023-10-12T08:45:56.309Z,102537.52
2023-10-12T08:48:54.327Z,102536.39
2023-10-12T08:52:00.818Z,102536.94
2023-10-12T08:54:59.127Z,102531.58
2023-10-12T08:58:34.090Z,102529.85
2023-10-12T09:01:32.341Z,102522.20
2023-10-12T09:04:22.838Z,102525.43
2023-10-12T09:07:14.130Z,102524.82
2023-10-12T09:10:03.851Z,102523.34
2023-10-12T09:12:49.635Z,102526.70
2023-10-12T09:15:46.506Z,102521.51
2023-10-12T09:18:54.194Z,102520.05
2023-10-12T09:21:40.067Z,102520.09
2023-10-12T09:24:29.043Z,102513.22
2023-10-12T09:27:16.383Z,102510.58
2023-10-12T09:30:07.423Z,102505.59
2023-10-12T09:33:35.339Z,102501.65
2023-10-12T09:36:23.855Z,102494.02
2023-10-12T09:39:12.794Z,102491.23
2023-10-12T09:42:23.276Z,102488.50
2023-10-12T09:45:25.633Z,102485.03
2023-10-12T09:48:28.000Z,102484.52
2023-10-12T09:51:18.302Z,102478.29
2023-10-12T09:54:16.437Z,102474.86
2023-10-12T09:57:15.739Z,102471.96
2023-10-12T10:00:20.529Z,102468.08
2023-10-12T10:03:09.696Z,102464.38
2023-10-12T10:06:05.053Z,102457.21
2023-10-12T10:09:10.092Z,102451.98
2023-10-12T10:12:00.364Z,102441.44
2023-10-12T10:14:48.022Z,102438.82
2023-10-12T10:17:37.395Z,102432.52
2023-10-12T10:20:25.788Z,102430.84
2023-10-12T10:23:14.635Z,102431.16
2023-10-12T10:26:20.731Z,102426.28
2023-10-12T10:29:17.954Z,102420.33
2023-10-12T10:32:04.144Z,102413.55
2023-10-12T10:35:01.724Z,102410.04
2023-10-12T10:37:58.366Z,102412.77
2023-10-12T10:40:48.560Z,102408.17
2023-10-12T10:43:40.731Z,102401.69
2023-10-12T10:46:27.532Z,102401.13
2023-10-12T10:49:33.004Z,102397.77
2023-10-12T10:52:27.327Z,102394.54
2023-10-12T10:55:22.410Z,102396.86
2023-10-12T10:58:08.551Z,102390.11
2023-10-12T11:00:58.387Z,102385.03
2023-10-12T11:03:47.231Z,102381.73
2023-10-12T11:06:37.777Z,102370.55
2023-10-12T11:09:32.563Z,102369.73
2023-10-12T11:12:21.138Z,102368.55
2023-10-12T11:15:11.855Z,102361.70
2023-10-12T11:17:58.388Z,102358.13
2023-10-12T11:21:16.441Z,102352.19
2023-10-12T11:24:11.704Z,102351.75
2023-10-12T11:26:58.261Z,102347.98
2023-10-12T11:29:53.295Z,102348.98
2023-10-12T11:33:01.558Z,102349.17
2023-10-12T11:35:47.869Z,102346.13
2023-10-12T11:38:34.028Z,102341.66
2023-10-12T11:41:21.145Z,102337.99
2023-10-12T11:44:09.538Z,102330.45
2023-10-12T11:47:00.013Z,102323.20
2023-10-12T11:49:56.633Z,102319.73
2023-10-12T11:52:50.889Z,102317.39
2023-10-12T11:55:40.742Z,102314.67
2023-10-12T11:58:30.086Z,102316.73
2023-10-12T12:01:19.016Z,102317.20
2023-10-12T12:04:11.362Z,102313.40
2023-10-12T12:06:57.853Z,102306.41
2023-10-12T12:13:17.538Z,102295.30
2023-10-12T12:16:09.487Z,102289.73
2023-10-12T12:18:56.061Z,102284.48
2023-10-12T12:21:42.987Z,102276.39
2023-10-12T12:24:30.029Z,102271.20
2023-10-12T12:27:34.676Z,102267.55
2023-10-12T12:33:23.763Z,102260.50
2023-10-12T12:36:21.989Z,102256.17
2023-10-12T12:39:10.771Z,102254.42
2023-10-12T12:41:56.240Z,102251.05
2023-10-12T12:44:43.056Z,102244.10
2023-10-12T12:47:33.386Z,102244.14
2023-10-12T12:50:19.086Z,102236.25
2023-10-12T12:53:07.138Z,102232.64
2023-10-12T12:56:06.051Z,102228.36
2023-10-12T12:59:08.345Z,102226.11
2023-10-12T13:01:55.065Z,102224.89
2023-10-12T13:04:42.845Z,102215.64
2023-10-12T13:07:29.027Z,102210.41
2023-10-12T13:10:15.379Z,102207.81
2023-10-12T13:13:05.014Z,102207.33
2023-10-12T13:15:52.095Z,102207.88
2023-10-12T13:18:39.143Z,102205.34
2023-10-12T13:21:25.245Z,102208.34
2023-10-12T13:24:15.501Z,102208.59
2023-10-12T13:27:09.303Z,102203.13
2023-10-12T13:30:10.234Z,102197.23
2023-10-12T13:33:00.474Z,102195.83
2023-10-12T13:35:47.898Z,102194.15
2023-10-12T13:38:42.996Z,102190.52
2023-10-12T13:41:30.906Z,102186.39
2023-10-12T13:44:20.390Z,102182.62
2023-10-12T13:47:07.942Z,102182.34
2023-10-12T13:49:54.720Z,102172.23
2023-10-12T13:52:41.238Z,102169.79
2023-10-12T13:55:29.637Z,102168.31
2023-10-12T13:58:16.360Z,102167.39
2023-10-12T14:01:04.832Z,102163.98
2023-10-12T14:03:56.936Z,102162.88
2023-10-12T14:06:44.839Z,102158.04
2023-10-12T14:09:33.946Z,102150.15
2023-10-12T14:12:20.588Z,102143.48
2023-10-12T14:15:08.171Z,102145.80
2023-10-12T14:17:57.462Z,102145.30
2023-10-12T14:20:45.000Z,102139.61
2023-10-12T14:23:39.655Z,102136.82
2023-10-12T14:26:26.866Z,102137.89
2023-10-12T14:29:14.012Z,102140.02
2023-10-12T14:32:03.038Z,102143.24
2023-10-12T14:34:48.904Z,102140.25
2023-10-12T14:37:37.708Z,102135.98
2023-10-12T14:40:30.488Z,102140.06
2023-10-12T14:43:16.521Z,102138.66
2023-10-12T14:46:05.381Z,102142.63
2023-10-12T14:48:52.054Z,102141.27
2023-10-12T14:52:03.988Z,102142.85
2023-10-12T14:54:49.923Z,102139.59
2023-10-12T14:57:51.783Z,102141.41
2023-10-12T15:00:52.082Z,102144.23
2023-10-12T15:03:45.849Z,102139.66
2023-10-12T15:06:37.714Z,102139.12
2023-10-12T15:09:34.326Z,102135.52
2023-10-12T15:12:27.128Z,102134.86
2023-10-12T15:15:42.103Z,102137.60
2023-10-12T15:18:27.673Z,102139.65
2023-10-12T15:24:03.972Z,102142.11
2023-10-12T15:26:49.753Z,102137.58
2023-10-12T15:33:13.440Z,102138.91
2023-10-12T15:36:01.126Z,102145.27
2023-10-12T15:38:46.589Z,102140.21
2023-10-12T15:41:34.274Z,102141.18
2023-10-12T15:48:28.345Z,102148.33
2023-10-12T15:51:22.097Z,102152.91
2023-10-12T15:54:12.311Z,102152.77
2023-10-12T15:56:59.542Z,102151.07
2023-10-12T15:59:45.579Z,102150.89
2023-10-12T16:02:32.749Z,102152.89
2023-10-12T16:05:19.079Z,102153.02
2023-10-12T16:08:23.006Z,102151.89
2023-10-12T16:11:21.694Z,102153.61
2023-10-12T16:14:24.749Z,102153.24
2023-10-12T16:17:15.399Z,102156.00
2023-10-12T16:20:27.725Z,102151.94
2023-10-12T16:23:13.310Z,102151.58
2023-10-12T16:26:49.590Z,102151.52
2023-10-12T16:34:44.324Z,102159.96
2023-10-12T16:37:31.786Z,102163.61
2023-10-12T16:40:43.424Z,102160.65
2023-10-12T16:43:53.333Z,102160.38
2023-10-12T16:46:56.071Z,102157.09
2023-10-12T16:49:42.799Z,102159.84
2023-10-12T16:52:35.251Z,102156.48
2023-10-12T17:02:55.297Z,102156.23
2023-10-12T17:06:22.680Z,102154.55
2023-10-12T17:09:10.437Z,102151.59
2023-10-12T17:11:58.147Z,102155.78
2023-10-12T17:14:44.179Z,102157.48
2023-10-12T17:17:29.947Z,102153.44
2023-10-12T17:20:16.596Z,102153.13
2023-10-12T17:23:02.190Z,102154.93
2023-10-12T17:25:48.158Z,102153.56
2023-10-12T17:28:35.695Z,102151.64
2023-10-12T17:31:29.632Z,102151.54
2023-10-12T17:34:18.392Z,102154.11
2023-10-12T17:37:06.534Z,102155.10
2023-10-12T17:39:55.928Z,102154.46
2023-10-12T17:42:43.492Z,102154.73
2023-10-12T17:45:36.391Z,102155.89
2023-10-12T17:48:23.738Z,102158.30
2023-10-12T17:54:34.795Z,102157.52
2023-10-12T17:57:37.498Z,102157.39
2023-10-12T18:04:37.666Z,102159.00
2023-10-12T18:14:27.193Z,102161.79
2023-10-12T18:17:18.971Z,102163.98
2023-10-12T18:20:11.237Z,102162.64
2023-10-12T18:23:03.031Z,102164.45
2023-10-12T18:33:19.290Z,102162.39
2023-10-12T18:39:20.328Z,102162.95
2023-10-12T18:43:18.433Z,102161.08
2023-10-12T18:47:00.614Z,102162.64
2023-10-12T18:57:43.324Z,102159.88
2023-10-12T19:00:33.704Z,102160.60
2023-10-12T19:03:23.383Z,102163.83
2023-10-12T19:09:34.721Z,102163.52
2023-10-12T19:12:20.386Z,102161.25
2023-10-12T19:15:06.584Z,102162.41
2023-10-12T19:17:53.550Z,102164.76
2023-10-12T19:20:43.673Z,102164.45
2023-10-12T19:23:29.711Z,102164.71
2023-10-12T19:26:16.481Z,102159.25
2023-10-12T19:29:04.293Z,102159.77
2023-10-12T19:31:52.593Z,102158.41
2023-10-12T19:34:38.160Z,102154.03
2023-10-12T19:37:24.209Z,102148.40
2023-10-12T19:40:16.620Z,102142.20
2023-10-12T19:43:02.158Z,102142.44
2023-10-12T19:45:49.090Z,102140.88
2023-10-12T19:48:35.630Z,102137.65
2023-10-12T19:51:22.084Z,102140.80
2023-10-12T19:54:08.460Z,102140.60
2023-10-12T19:56:54.999Z,102139.88
2023-10-12T19:59:40.468Z,102137.20
2023-10-12T20:02:28.222Z,102133.98
2023-10-12T20:05:16.747Z,102132.71
2023-10-12T20:08:05.094Z,102130.05
2023-10-12T20:10:54.180Z,102126.34
2023-10-12T20:13:40.377Z,102123.70
2023-10-12T20:16:27.079Z,102124.77
2023-10-12T20:19:12.994Z,102123.86
2023-10-12T20:21:59.198Z,102118.67
2023-10-12T20:24:44.749Z,102118.12
2023-10-12T20:27:34.672Z,102109.06
2023-10-12T20:30:21.511Z,102106.22
2023-10-12T20:33:07.748Z,102105.16
2023-10-12T20:35:58.080Z,102102.61
2023-10-12T20:38:46.564Z,102103.27
2023-10-12T20:41:32.415Z,102098.90
2023-10-12T20:44:20.306Z,102099.92
2023-10-12T20:47:05.952Z,102095.45
2023-10-12T20:49:51.992Z,102088.85
2023-10-12T20:52:39.052Z,102087.23
2023-10-12T20:55:28.853Z,102089.92
2023-10-12T20:58:24.367Z,102090.28
2023-10-12T21:01:27.562Z,102087.48
2023-10-12T21:04:21.563Z,102086.45
2023-10-12T21:07:11.243Z,102081.49
2023-10-12T21:10:02.974Z,102084.77
2023-10-12T21:12:48.981Z,102084.13
2023-10-12T21:15:34.740Z,102086.16
2023-10-12T21:18:34.628Z,102082.33
2023-10-12T21:21:22.960Z,102083.99
2023-10-12T21:24:18.726Z,102079.63
2023-10-12T21:27:07.831Z,102074.31
2023-10-12T21:29:54.418Z,102071.09
2023-10-12T21:32:41.223Z,102072.11
2023-10-12T21:35:27.617Z,102068.73
2023-10-12T21:38:14.650Z,102065.05
2023-10-12T21:41:06.324Z,102063.14
2023-10-12T21:43:51.724Z,102057.88
2023-10-12T21:46:43.576Z,102056.32
2023-10-12T21:49:32.953Z,102060.11
2023-10-12T21:52:18.989Z,102061.98
2023-10-12T21:55:07.053Z,102061.67
2023-10-12T21:57:52.775Z,102059.78
2023-10-12T22:00:38.408Z,102058.08
2023-10-12T22:03:25.467Z,102062.39
2023-10-12T22:06:16.229Z,102061.05
2023-10-12T22:09:04.659Z,102056.83
2023-10-12T22:11:50.711Z,102052.77
2023-10-12T22:15:02.813Z,102055.27
2023-10-12T22:18:01.091Z,102050.31
2023-10-12T22:20:47.054Z,102046.99
2023-10-12T22:23:32.381Z,102048.28
2023-10-12T22:26:18.980Z,102049.73
2023-10-12T22:29:04.644Z,102050.46
2023-10-12T22:31:50.565Z,102058.72
2023-10-12T22:34:36.282Z,102056.98
2023-10-12T22:37:22.515Z,102058.44
2023-10-12T22:40:14.910Z,102059.55
2023-10-12T22:43:00.447Z,102055.26
2023-10-12T22:45:46.224Z,102059.14
2023-10-12T22:48:32.282Z,102064.83
2023-10-12T22:51:22.647Z,102058.45
2023-10-12T22:54:07.958Z,102058.10
2023-10-12T22:56:54.118Z,102049.08
2023-10-12T22:59:39.576Z,102046.28
2023-10-12T23:02:25.691Z,102048.09
2023-10-12T23:05:15.347Z,102053.84
2023-10-12T23:08:02.150Z,102050.19
2023-10-12T23:10:48.218Z,102045.64
2023-10-12T23:13:34.000Z,102039.33
2023-10-12T23:16:46.680Z,102036.04
2023-10-12T23:19:38.810Z,102036.66
2023-10-12T23:22:24.421Z,102040.67
2023-10-12T23:25:11.027Z,102037.86
2023-10-12T23:28:00.461Z,102038.05
2023-10-12T23:31:04.839Z,102026.14
2023-10-12T23:33:54.680Z,102019.90
2023-10-12T23:36:40.564Z,102019.20
2023-10-12T23:39:36.641Z,102014.40
2023-10-12T23:42:23.520Z,102012.11
2023-10-12T23:45:19.072Z,102008.10
2023-10-12T23:48:12.866Z,102006.19
2023-10-12T23:51:13.746Z,102002.52
2023-10-12T23:54:29.990Z,102000.82
2023-10-12T23:57:16.527Z,102007.45
